sensor_id;sensor_type;location;lat;lon;timestamp;P1;durP1;ratioP1;P2;durP2;ratioP2
76568;SDS011;65429;44.498;0.166;2022-12-18T10:45:15;-1.00;;;-1.00;;
76568;SDS011;65429;44.498;0.166;2022-12-18T11:26:49;7.87;;;4.13;;
76568;SDS011;65429;44.498;0.166;2022-12-18T11:40:40;6.00;;;4.67;;
76568;SDS011;65429;44.498;0.166;2022-12-18T11:54:30;5.37;;;3.97;;
76568;SDS011;65429;44.498;0.166;2022-12-18T12:08:22;5.40;;;4.30;;
76568;SDS011;65429;44.498;0.166;2022-12-18T12:22:10;5.70;;;5.07;;
76568;SDS011;65429;44.498;0.166;2022-12-18T12:36:02;5.57;;;4.77;;
76568;SDS011;65429;44.498;0.166;2022-12-18T12:49:50;6.47;;;5.77;;
76568;SDS011;65429;44.498;0.166;2022-12-18T13:03:42;7.70;;;5.23;;
76568;SDS011;65429;44.498;0.166;2022-12-18T13:17:29;7.77;;;5.23;;
76568;SDS011;65429;44.498;0.166;2022-12-18T13:59:06;8.83;;;4.43;;
76568;SDS011;65429;44.498;0.166;2022-12-18T14:12:51;4.93;;;4.43;;
76568;SDS011;65429;44.498;0.166;2022-12-18T14:26:41;5.00;;;3.80;;
76568;SDS011;65429;44.498;0.166;2022-12-18T14:40:33;6.13;;;4.03;;
76568;SDS011;65429;44.498;0.166;2022-12-18T14:54:24;7.17;;;3.50;;
76568;SDS011;65429;44.498;0.166;2022-12-18T15:22:01;7.70;;;5.73;;
76568;SDS011;65429;44.498;0.166;2022-12-18T15:35:56;7.40;;;4.67;;
76568;SDS011;65429;44.498;0.166;2022-12-18T15:49:40;5.13;;;4.50;;
76568;SDS011;65429;44.498;0.166;2022-12-18T16:03:32;7.53;;;5.83;;
76568;SDS011;65429;44.498;0.166;2022-12-18T16:31:11;8.07;;;5.53;;
76568;SDS011;65429;44.498;0.166;2022-12-18T16:45:04;8.47;;;5.33;;
76568;SDS011;65429;44.498;0.166;2022-12-18T16:58:53;8.17;;;5.07;;
76568;SDS011;65429;44.498;0.166;2022-12-18T17:12:43;10.37;;;6.30;;
76568;SDS011;65429;44.498;0.166;2022-12-18T17:26:36;11.83;;;5.83;;
76568;SDS011;65429;44.498;0.166;2022-12-18T17:40:23;8.17;;;6.47;;
76568;SDS011;65429;44.498;0.166;2022-12-18T17:54:12;6.67;;;5.53;;
76568;SDS011;65429;44.498;0.166;2022-12-18T18:08:02;8.93;;;4.93;;
76568;SDS011;65429;44.498;0.166;2022-12-18T18:21:53;8.00;;;5.67;;
76568;SDS011;65429;44.498;0.166;2022-12-18T18:35:44;8.43;;;5.73;;
76568;SDS011;65429;44.498;0.166;2022-12-18T18:49:34;8.77;;;7.00;;
76568;SDS011;65429;44.498;0.166;2022-12-18T19:03:25;11.33;;;7.40;;
76568;SDS011;65429;44.498;0.166;2022-12-18T19:17:15;12.63;;;7.20;;
76568;SDS011;65429;44.498;0.166;2022-12-18T19:31:06;15.57;;;8.50;;
76568;SDS011;65429;44.498;0.166;2022-12-18T19:44:55;10.23;;;7.27;;
76568;SDS011;65429;44.498;0.166;2022-12-18T19:58:45;11.77;;;8.57;;
76568;SDS011;65429;44.498;0.166;2022-12-18T20:12:37;10.33;;;6.50;;
76568;SDS011;65429;44.498;0.166;2022-12-18T20:26:28;10.67;;;6.47;;
76568;SDS011;65429;44.498;0.166;2022-12-18T20:40:20;13.90;;;7.20;;
76568;SDS011;65429;44.498;0.166;2022-12-18T20:54:10;16.40;;;8.53;;
76568;SDS011;65429;44.498;0.166;2022-12-18T21:08:01;25.07;;;11.33;;
76568;SDS011;65429;44.498;0.166;2022-12-18T21:21:51;13.60;;;6.20;;
76568;SDS011;65429;44.498;0.166;2022-12-18T21:35:41;8.83;;;5.10;;
76568;SDS011;65429;44.498;0.166;2022-12-18T21:49:32;14.70;;;7.47;;
76568;SDS011;65429;44.498;0.166;2022-12-18T22:03:23;12.00;;;6.40;;
76568;SDS011;65429;44.498;0.166;2022-12-18T22:17:12;12.67;;;7.07;;
76568;SDS011;65429;44.498;0.166;2022-12-18T22:31:04;13.67;;;6.80;;
76568;SDS011;65429;44.498;0.166;2022-12-18T22:44:55;10.77;;;6.33;;
76568;SDS011;65429;44.498;0.166;2022-12-18T22:58:47;11.87;;;6.90;;
76568;SDS011;65429;44.498;0.166;2022-12-18T23:12:37;19.60;;;7.93;;
76568;SDS011;65429;44.498;0.166;2022-12-18T23:26:28;13.77;;;7.27;;
76568;SDS011;65429;44.498;0.166;2022-12-18T23:40:18;13.00;;;6.07;;
76568;SDS011;65429;44.498;0.166;2022-12-18T23:54:09;15.13;;;5.50;;
